Terminal Aerodrome Forecast
Issued by NWS Cleveland, OH

Home | Current Version | Previous Version | Graphics & Text | Print | Product List | Glossary Off
Versions: 1 2 3 4 5 6 7 8 9 10 11 12 13 14 15 16 17 18 19 20 21 22 23 24 25 26 27 28

000
FTUS41 KCLE 240534
TAFTOL
TAF
KTOL 240534Z 2406/2506 07010KT P6SM SCT022 OVC050
      TEMPO 2406/2408 4SM -SHRA OVC022
     FM240800 10008KT 3SM -SHRA BR OVC010
     FM241100 14007KT P6SM BKN025
     FM241500 17014G23KT P6SM BKN045
     FM250300 24014KT P6SM -SHRA VCTS OVC020CB=

USA.gov is the U.S. government's official web portal to all federal, state and local government web resources and services.